< < Back
Terminal Aerodrome Forecast


Current Version              Previous Versions:   1  2  3  4  5  6  7  8  9  

Terminal Aerodrome Forecast

266
FTUS42 KTAE 310831 AAA
TAFTLH
TAF AMD
KTLH 310831Z 3109/0106 00000KT 1 1/2SM BR OVC002
     FM311500 25008G16KT P6SM BKN035 PROB30 3120/3124 VRB15G25KT 3SM
      TSRA BKN025CB
     FM010000 22006KT P6SM BKN250=

Latest METAR

117
SAUS80 KWBC 312000 CCA
MTRTLH
METAR KTLH 311953Z 25015G21KT 10SM SCT055 BKN070 BKN250 29/14 A3002 RMK
AO2 SLP166 T02940144


USA.gov is the U.S. government's official web portal to all federal, state and local government web resources and services.